createdAt,value
2022-08-10T00:01:03.707Z,20.68
2022-08-10T00:03:30.202Z,20.63
2022-08-10T00:05:56.719Z,20.58
2022-08-10T00:08:26.885Z,20.54
2022-08-10T00:10:54.909Z,20.49
2022-08-10T00:13:22.163Z,20.43
2022-08-10T00:15:53.933Z,20.36
2022-08-10T00:18:35.277Z,20.39
2022-08-10T00:21:04.266Z,20.33
2022-08-10T00:23:30.525Z,20.31
2022-08-10T00:25:56.876Z,20.25
2022-08-10T00:28:23.316Z,20.14
2022-08-10T00:30:49.799Z,20.06
2022-08-10T00:33:16.518Z,20.07
2022-08-10T00:35:43.247Z,20.06
2022-08-10T00:38:09.724Z,20.03
2022-08-10T00:40:36.110Z,20.02
2022-08-10T00:43:05.908Z,20.05
2022-08-10T00:45:32.558Z,20.07
2022-08-10T00:47:58.966Z,20.08
2022-08-10T00:50:25.623Z,20.04
2022-08-10T00:52:52.134Z,20.01
2022-08-10T00:55:19.166Z,19.94
2022-08-10T00:57:46.982Z,19.94
2022-08-10T01:00:22.504Z,19.91
2022-08-10T01:02:48.941Z,19.86
2022-08-10T01:05:15.602Z,19.83
2022-08-10T01:07:56.958Z,19.83
2022-08-10T01:10:38.247Z,19.81
2022-08-10T01:13:20.664Z,19.78
2022-08-10T01:16:01.066Z,19.77
2022-08-10T01:18:40.471Z,19.74
2022-08-10T01:21:18.683Z,19.71
2022-08-10T01:24:03.852Z,19.67
2022-08-10T01:27:08.351Z,19.61
2022-08-10T01:30:02.010Z,19.64
2022-08-10T01:32:48.832Z,19.65
2022-08-10T01:35:39.964Z,19.64
2022-08-10T01:38:14.367Z,19.65
2022-08-10T01:40:57.279Z,19.67
2022-08-10T01:43:26.736Z,19.62
2022-08-10T01:45:56.761Z,19.62
2022-08-10T01:48:31.469Z,19.60
2022-08-10T01:51:09.079Z,19.60
2022-08-10T01:53:42.901Z,19.58
2022-08-10T01:56:12.295Z,19.51
2022-08-10T01:58:39.665Z,19.51
2022-08-10T02:01:09.732Z,19.40
2022-08-10T02:04:03.590Z,19.41
2022-08-10T02:06:30.675Z,19.40
2022-08-10T02:09:06.618Z,19.38
2022-08-10T02:12:06.610Z,19.40
2022-08-10T02:14:21.882Z,19.39
2022-08-10T02:16:51.257Z,19.36
2022-08-10T02:19:23.478Z,19.29
2022-08-10T02:22:37.834Z,19.28
2022-08-10T02:24:43.879Z,19.23
2022-08-10T02:27:12.552Z,19.20
2022-08-10T02:29:42.475Z,19.13
2022-08-10T02:32:11.387Z,19.15
2022-08-10T02:34:39.990Z,19.13
2022-08-10T02:37:10.830Z,19.09
2022-08-10T02:39:38.456Z,19.06
2022-08-10T02:45:27.644Z,19.07
2022-08-10T02:45:31.216Z,19.03
2022-08-10T02:48:18.607Z,19.00
2022-08-10T02:50:50.904Z,18.92
2022-08-10T02:53:56.331Z,18.88
2022-08-10T02:56:29.914Z,18.82
2022-08-10T02:59:11.508Z,18.78
2022-08-10T03:01:43.283Z,18.77
2022-08-10T03:04:19.818Z,18.76
2022-08-10T03:07:10.207Z,18.75
2022-08-10T03:09:39.856Z,18.74
2022-08-10T03:12:36.472Z,18.70
2022-08-10T03:14:56.971Z,18.66
2022-08-10T03:17:24.544Z,18.63
2022-08-10T03:20:35.109Z,18.61
2022-08-10T03:22:40.988Z,18.55
2022-08-10T03:25:10.010Z,18.48
2022-08-10T03:27:36.902Z,18.46
2022-08-10T03:30:23.262Z,18.45
2022-08-10T03:32:53.704Z,18.44
2022-08-10T03:35:21.556Z,18.37
2022-08-10T03:37:47.891Z,18.36
2022-08-10T03:40:14.498Z,18.32
2022-08-10T03:42:43.286Z,18.27
2022-08-10T03:45:10.659Z,18.22
2022-08-10T03:47:39.180Z,18.15
2022-08-10T03:50:27.511Z,18.14
2022-08-10T03:52:55.206Z,18.09
2022-08-10T03:56:27.315Z,18.06
2022-08-10T03:58:10.708Z,18.04
2022-08-10T04:00:38.292Z,18.05
2022-08-10T04:03:05.562Z,18.05
2022-08-10T04:05:38.816Z,18.04
2022-08-10T04:08:06.275Z,18.00
2022-08-10T04:10:34.647Z,17.98
2022-08-10T04:13:01.160Z,17.97
2022-08-10T04:15:28.627Z,17.90
2022-08-10T04:18:03.772Z,17.88
2022-08-10T04:20:38.186Z,17.87
2022-08-10T04:23:21.541Z,17.88
2022-08-10T04:25:48.030Z,17.84
2022-08-10T04:28:14.530Z,17.84
2022-08-10T04:30:42.000Z,17.82
2022-08-10T04:33:10.959Z,17.83
2022-08-10T04:35:38.893Z,17.81
2022-08-10T04:38:05.833Z,17.80
2022-08-10T04:40:32.319Z,17.78
2022-08-10T04:43:12.852Z,17.77
2022-08-10T04:45:47.403Z,17.77
2022-08-10T04:48:42.633Z,17.79
2022-08-10T04:51:05.115Z,17.76
2022-08-10T04:53:31.957Z,17.74
2022-08-10T04:55:58.430Z,17.71
2022-08-10T04:58:25.173Z,17.70
2022-08-10T05:00:52.139Z,17.72
2022-08-10T05:03:18.567Z,17.70
2022-08-10T05:05:44.938Z,17.68
2022-08-10T05:08:11.388Z,17.68
2022-08-10T05:10:37.759Z,17.73
2022-08-10T05:13:04.137Z,17.73
2022-08-10T05:15:31.403Z,17.75
2022-08-10T05:18:08.087Z,17.79
2022-08-10T05:20:36.681Z,17.76
2022-08-10T05:23:03.292Z,17.75
2022-08-10T05:25:29.799Z,17.78
2022-08-10T05:28:01.972Z,17.80
2022-08-10T05:30:32.148Z,17.78
2022-08-10T05:33:02.689Z,17.82
2022-08-10T05:35:56.753Z,17.83
2022-08-10T05:38:22.234Z,17.94
2022-08-10T05:40:49.540Z,17.95
2022-08-10T05:43:18.250Z,17.97
2022-08-10T05:46:16.904Z,18.01
2022-08-10T05:48:57.923Z,18.06
2022-08-10T05:51:20.578Z,18.12
2022-08-10T05:54:02.908Z,18.12
2022-08-10T05:56:55.937Z,18.16
2022-08-10T06:00:34.285Z,18.17
2022-08-10T06:02:33.670Z,18.22
2022-08-10T06:04:55.488Z,18.24
2022-08-10T06:07:26.877Z,18.27
2022-08-10T06:09:59.754Z,18.28
2022-08-10T06:12:30.245Z,18.32
2022-08-10T06:15:05.061Z,18.31
2022-08-10T06:17:33.079Z,18.33
2022-08-10T06:20:01.587Z,18.35
2022-08-10T06:22:30.019Z,18.41
2022-08-10T06:25:21.747Z,18.42
2022-08-10T06:27:44.668Z,18.49
2022-08-10T06:30:19.774Z,18.55
2022-08-10T06:32:50.888Z,18.57
2022-08-10T06:35:18.973Z,18.60
2022-08-10T06:37:50.770Z,18.62
2022-08-10T06:40:19.062Z,18.72
2022-08-10T06:42:48.627Z,18.76
2022-08-10T06:45:21.823Z,18.79
2022-08-10T06:48:00.271Z,18.86
2022-08-10T06:50:45.052Z,18.89
2022-08-10T06:53:22.577Z,18.91
2022-08-10T06:55:56.438Z,19.01
2022-08-10T06:58:26.881Z,19.05
2022-08-10T07:00:55.465Z,19.11
2022-08-10T07:03:26.205Z,19.15
2022-08-10T07:05:55.089Z,19.19
2022-08-10T07:08:23.603Z,19.22
2022-08-10T07:10:51.302Z,19.23
2022-08-10T07:14:14.058Z,19.26
2022-08-10T07:16:12.288Z,19.31
2022-08-10T07:18:42.083Z,19.33
2022-08-10T07:21:11.098Z,19.38
2022-08-10T07:23:58.871Z,19.48
2022-08-10T07:26:27.819Z,19.53
2022-08-10T07:28:55.722Z,19.58
2022-08-10T07:31:34.833Z,19.60
2022-08-10T07:34:11.620Z,19.67
2022-08-10T07:36:40.579Z,19.72
2022-08-10T07:39:08.917Z,19.78
2022-08-10T07:41:40.145Z,19.81
2022-08-10T07:44:07.657Z,19.86
2022-08-10T07:46:38.297Z,19.94
2022-08-10T07:49:15.358Z,19.97
2022-08-10T07:51:54.725Z,20.03
2022-08-10T07:54:23.938Z,20.08
2022-08-10T07:56:53.629Z,20.19
2022-08-10T07:59:37.396Z,20.28
2022-08-10T08:02:07.755Z,20.38
2022-08-10T08:04:35.927Z,20.43
2022-08-10T08:07:04.453Z,20.47
2022-08-10T08:09:31.804Z,20.52
2022-08-10T08:11:59.530Z,20.58
2022-08-10T08:14:27.336Z,20.64
2022-08-10T08:16:55.740Z,20.71
2022-08-10T08:19:28.550Z,20.88
2022-08-10T08:24:06.418Z,21.14
2022-08-10T08:24:52.531Z,21.45
2022-08-10T08:27:19.880Z,21.81
2022-08-10T08:29:49.067Z,22.24
2022-08-10T08:32:22.550Z,22.66
2022-08-10T08:34:55.669Z,23.07
2022-08-10T08:38:29.269Z,23.48
2022-08-10T08:40:23.549Z,23.96
2022-08-10T08:43:11.342Z,24.35
2022-08-10T08:46:05.819Z,24.66
2022-08-10T08:48:58.460Z,25.07
2022-08-10T08:52:08.018Z,25.37
2022-08-10T08:55:01.488Z,25.73
2022-08-10T08:57:52.692Z,26.07
2022-08-10T09:00:45.555Z,26.35
2022-08-10T09:03:36.682Z,26.57
2022-08-10T09:06:34.783Z,26.76
2022-08-10T09:09:39.572Z,27.08
2022-08-10T09:12:41.070Z,27.20
2022-08-10T09:15:40.542Z,27.38
2022-08-10T09:18:31.582Z,27.59
2022-08-10T09:21:23.659Z,27.77
2022-08-10T09:24:10.564Z,28.04
2022-08-10T09:26:49.310Z,28.26
2022-08-10T09:29:26.011Z,28.46
2022-08-10T09:36:16.527Z,28.48
2022-08-10T09:36:23.869Z,28.77
2022-08-10T09:38:03.213Z,28.96
2022-08-10T09:41:00.449Z,29.21
2022-08-10T09:43:43.526Z,29.30
2022-08-10T09:46:44.060Z,29.49
2022-08-10T09:49:53.426Z,29.63
2022-08-10T09:52:35.340Z,29.72
2022-08-10T09:56:17.410Z,29.89
2022-08-10T09:58:31.256Z,30.06
2022-08-10T10:02:03.347Z,30.24
2022-08-10T10:05:03.663Z,30.37
2022-08-10T10:07:30.515Z,30.48
2022-08-10T10:10:03.168Z,30.59
2022-08-10T10:12:50.644Z,30.77
2022-08-10T10:15:59.133Z,30.93
2022-08-10T10:18:44.032Z,31.04
2022-08-10T10:21:54.772Z,31.08
2022-08-10T10:24:30.342Z,31.30
2022-08-10T10:27:16.102Z,31.43
2022-08-10T10:30:02.940Z,31.44
2022-08-10T10:33:20.336Z,31.64
2022-08-10T10:35:55.602Z,31.58
2022-08-10T10:38:26.831Z,31.71
2022-08-10T10:41:03.926Z,31.89
2022-08-10T10:43:58.879Z,32.10
2022-08-10T10:46:46.668Z,32.13
2022-08-10T10:49:52.393Z,32.42
2022-08-10T10:53:08.190Z,32.60
2022-08-10T10:55:34.892Z,32.75
2022-08-10T10:59:53.414Z,32.89
2022-08-10T11:02:13.691Z,33.03
2022-08-10T11:04:43.059Z,33.02
2022-08-10T11:07:31.701Z,33.24
2022-08-10T11:10:31.851Z,33.30
2022-08-10T11:14:24.552Z,33.46
2022-08-10T11:16:20.016Z,33.45
2022-08-10T11:18:59.314Z,33.49
2022-08-10T11:21:37.465Z,33.47
2022-08-10T11:24:48.789Z,33.54
2022-08-10T11:27:37.075Z,33.46
2022-08-10T11:30:07.884Z,33.71
2022-08-10T11:32:53.460Z,33.67
2022-08-10T11:35:35.083Z,33.79
2022-08-10T11:38:31.304Z,33.92
2022-08-10T11:42:09.928Z,33.99
2022-08-10T11:44:40.415Z,34.16
2022-08-10T11:47:13.198Z,34.31
2022-08-10T11:49:49.196Z,34.43
2022-08-10T11:52:26.210Z,34.56
2022-08-10T11:55:06.158Z,34.63
2022-08-10T11:57:54.370Z,34.61
2022-08-10T12:00:21.067Z,34.80
2022-08-10T12:02:57.974Z,35.02
2022-08-10T12:05:53.730Z,35.14
2022-08-10T12:10:09.365Z,35.10
2022-08-10T12:11:06.768Z,35.28
2022-08-10T12:13:53.815Z,35.34
2022-08-10T12:16:29.747Z,35.34
2022-08-10T12:19:05.652Z,35.53
2022-08-10T12:21:39.379Z,35.56
2022-08-10T12:24:33.406Z,35.70
2022-08-10T12:27:05.230Z,35.76
2022-08-10T12:29:58.059Z,35.88
2022-08-10T12:32:31.510Z,36.04
2022-08-10T12:35:21.813Z,36.08
2022-08-10T12:38:11.173Z,36.18
2022-08-10T12:40:54.176Z,36.15
2022-08-10T12:44:07.287Z,36.24
2022-08-10T12:46:35.005Z,36.23
2022-08-10T12:49:19.881Z,36.25
2022-08-10T12:51:56.093Z,36.21
2022-08-10T12:54:32.693Z,36.30
2022-08-10T12:57:03.467Z,36.43
2022-08-10T12:59:31.707Z,36.36
2022-08-10T13:02:07.638Z,36.31
2022-08-10T13:04:40.281Z,36.26
2022-08-10T13:07:09.033Z,36.33
2022-08-10T13:09:56.433Z,36.36
2022-08-10T13:12:44.405Z,36.35
2022-08-10T13:15:48.541Z,36.43
2022-08-10T13:18:22.826Z,36.33
2022-08-10T13:20:52.098Z,36.30
2022-08-10T13:23:23.731Z,36.38
2022-08-10T13:25:52.230Z,36.29
2022-08-10T13:28:35.627Z,36.31
2022-08-10T13:31:11.386Z,36.18
2022-08-10T13:34:34.069Z,36.22
2022-08-10T13:36:38.484Z,36.28
2022-08-10T13:39:07.142Z,36.43
2022-08-10T13:41:42.262Z,36.54
2022-08-10T13:44:11.361Z,36.46
2022-08-10T13:46:42.007Z,36.49
2022-08-10T13:49:11.091Z,36.59
2022-08-10T13:51:57.393Z,36.58
2022-08-10T13:54:28.931Z,36.56
2022-08-10T13:56:57.523Z,36.80
2022-08-10T14:00:33.015Z,36.85
2022-08-10T14:02:23.571Z,36.90
2022-08-10T14:04:51.625Z,36.92
2022-08-10T14:07:19.565Z,36.97
2022-08-10T14:09:47.800Z,36.99
2022-08-10T14:12:16.494Z,36.87
2022-08-10T14:14:45.179Z,36.86
2022-08-10T14:17:22.035Z,36.93
2022-08-10T14:19:51.507Z,36.83
2022-08-10T14:22:34.188Z,36.89
2022-08-10T14:25:19.177Z,36.86
2022-08-10T14:28:02.511Z,36.92
2022-08-10T14:30:31.885Z,36.89
2022-08-10T14:33:03.970Z,36.87
2022-08-10T14:36:19.159Z,36.97
2022-08-10T14:38:23.271Z,37.03
2022-08-10T14:40:53.548Z,37.03
2022-08-10T14:43:53.202Z,36.91
2022-08-10T14:46:22.165Z,36.88
2022-08-10T14:48:50.586Z,36.79
2022-08-10T14:51:25.718Z,36.69
2022-08-10T14:53:55.725Z,36.58
2022-08-10T14:56:29.616Z,36.61
2022-08-10T14:59:07.120Z,36.63
2022-08-10T15:02:38.679Z,36.68
2022-08-10T15:04:26.768Z,36.52
2022-08-10T15:07:00.859Z,36.61
2022-08-10T15:09:59.179Z,36.56
2022-08-10T15:12:26.345Z,36.58
2022-08-10T15:14:58.529Z,36.65
2022-08-10T15:17:35.315Z,36.63
2022-08-10T15:20:28.724Z,36.51
2022-08-10T15:23:00.812Z,36.53
2022-08-10T15:25:30.238Z,36.52
2022-08-10T15:28:06.361Z,36.61
2022-08-10T15:30:40.485Z,36.54
2022-08-10T15:33:57.063Z,36.62
2022-08-10T15:36:36.779Z,36.55
2022-08-10T15:39:11.965Z,36.54
2022-08-10T15:42:00.339Z,36.42
2022-08-10T15:44:34.530Z,36.35
2022-08-10T15:47:08.134Z,36.26
2022-08-10T15:49:59.831Z,36.30
2022-08-10T15:52:39.347Z,36.23
2022-08-10T15:55:41.537Z,36.26
2022-08-10T15:58:19.478Z,36.22
2022-08-10T16:00:55.523Z,36.16
2022-08-10T16:03:37.945Z,36.04
2022-08-10T16:06:06.980Z,36.02
2022-08-10T16:08:56.246Z,35.93
2022-08-10T16:11:37.603Z,35.87
2022-08-10T16:14:23.318Z,35.75
2022-08-10T16:16:57.859Z,35.69
2022-08-10T16:19:26.479Z,35.69
2022-08-10T16:22:03.075Z,35.65
2022-08-10T16:24:50.515Z,35.64
2022-08-10T16:27:23.848Z,35.52
2022-08-10T16:29:57.365Z,35.44
2022-08-10T16:32:25.367Z,35.30
2022-08-10T16:34:53.780Z,35.16
2022-08-10T16:37:22.117Z,35.15
2022-08-10T16:40:01.291Z,35.14
2022-08-10T16:42:32.349Z,35.09
2022-08-10T16:45:08.746Z,34.93
2022-08-10T16:47:39.073Z,34.87
2022-08-10T16:50:09.302Z,34.70
2022-08-10T16:52:37.171Z,34.46
2022-08-10T16:55:24.559Z,34.44
2022-08-10T16:58:06.591Z,34.27
2022-08-10T17:00:34.316Z,34.18
2022-08-10T17:04:05.438Z,33.92
2022-08-10T17:06:11.441Z,33.86
2022-08-10T17:08:48.092Z,33.69
2022-08-10T17:11:17.181Z,33.55
2022-08-10T17:13:43.951Z,33.41
2022-08-10T17:16:13.743Z,33.27
2022-08-10T17:18:45.121Z,33.13
2022-08-10T17:21:37.251Z,32.96
2022-08-10T17:24:07.752Z,32.85
2022-08-10T17:26:37.371Z,32.74
2022-08-10T17:29:53.346Z,32.75
2022-08-10T17:32:05.502Z,32.62
2022-08-10T17:34:38.282Z,32.51
2022-08-10T17:37:13.187Z,32.41
2022-08-10T17:39:47.960Z,32.31
2022-08-10T17:42:21.645Z,32.16
2022-08-10T17:44:52.880Z,32.07
2022-08-10T17:47:20.804Z,31.95
2022-08-10T17:49:48.052Z,31.78
2022-08-10T17:52:21.175Z,31.77
2022-08-10T17:54:54.915Z,31.61
2022-08-10T17:57:22.885Z,31.48
2022-08-10T17:59:51.976Z,31.40
2022-08-10T18:02:22.910Z,31.25
2022-08-10T18:04:53.121Z,31.17
2022-08-10T18:07:22.167Z,31.07
2022-08-10T18:09:52.294Z,30.96
2022-08-10T18:12:32.007Z,30.87
2022-08-10T18:15:04.422Z,30.76
2022-08-10T18:17:38.179Z,30.64
2022-08-10T18:20:08.962Z,30.57
2022-08-10T18:22:44.558Z,30.44
2022-08-10T18:25:24.715Z,30.38
2022-08-10T18:28:02.060Z,30.26
2022-08-10T18:30:35.943Z,30.21
2022-08-10T18:33:08.075Z,30.15
2022-08-10T18:35:35.447Z,30.03
2022-08-10T18:38:03.787Z,29.93
2022-08-10T18:40:36.510Z,29.83
2022-08-10T18:44:04.587Z,29.76
2022-08-10T18:45:56.644Z,29.66
2022-08-10T18:48:32.972Z,29.60
2022-08-10T18:51:05.600Z,29.48
2022-08-10T18:53:48.428Z,29.39
2022-08-10T18:56:20.783Z,29.27
2022-08-10T18:59:03.208Z,29.18
2022-08-10T19:01:51.460Z,29.09
2022-08-10T19:04:49.740Z,29.03
2022-08-10T19:07:54.781Z,28.98
2022-08-10T19:10:39.908Z,28.87
2022-08-10T19:13:36.575Z,28.74
2022-08-10T19:16:07.650Z,28.56
2022-08-10T19:18:50.052Z,28.51
2022-08-10T19:21:23.515Z,28.45
2022-08-10T19:24:14.910Z,28.35
2022-08-10T19:26:54.765Z,28.24
2022-08-10T19:30:08.221Z,28.18
2022-08-10T19:33:02.351Z,28.10
2022-08-10T19:35:34.530Z,27.99
2022-08-10T19:38:33.071Z,27.94
2022-08-10T19:41:10.130Z,27.91
2022-08-10T19:44:18.883Z,27.80
2022-08-10T19:47:12.215Z,27.79
2022-08-10T19:50:03.686Z,27.72
2022-08-10T19:52:41.781Z,27.63
2022-08-10T19:55:41.037Z,27.54
2022-08-10T19:58:26.194Z,27.49
2022-08-10T20:01:02.198Z,27.46
2022-08-10T20:03:56.365Z,27.37
2022-08-10T20:06:40.020Z,27.29
2022-08-10T20:09:14.755Z,27.21
2022-08-10T20:11:54.699Z,27.15
2022-08-10T20:14:28.937Z,27.13
2022-08-10T20:17:02.539Z,27.13
2022-08-10T20:19:58.721Z,27.11
2022-08-10T20:22:35.223Z,27.01
2022-08-10T20:25:08.851Z,26.94
2022-08-10T20:28:00.219Z,26.82
2022-08-10T20:30:32.401Z,26.77
2022-08-10T20:33:07.697Z,26.73
2022-08-10T20:36:01.798Z,26.66
2022-08-10T20:38:46.154Z,26.53
2022-08-10T20:41:46.314Z,26.47
2022-08-10T20:44:37.666Z,26.42
2022-08-10T20:47:19.235Z,26.33
2022-08-10T20:50:01.466Z,26.22
2022-08-10T20:52:29.765Z,26.13
2022-08-10T20:55:02.090Z,26.11
2022-08-10T20:57:54.922Z,26.03
2022-08-10T21:00:30.675Z,25.97
2022-08-10T21:03:15.867Z,25.97
2022-08-10T21:06:06.464Z,25.92
2022-08-10T21:08:52.110Z,25.87
2022-08-10T21:11:46.352Z,25.81
2022-08-10T21:14:27.159Z,25.73
2022-08-10T21:17:17.658Z,25.70
2022-08-10T21:20:04.366Z,25.68
2022-08-10T21:22:39.411Z,25.61
2022-08-10T21:25:40.212Z,25.59
2022-08-10T21:28:31.500Z,25.52
2022-08-10T21:31:33.366Z,25.47
2022-08-10T21:34:12.396Z,25.43
2022-08-10T21:36:56.641Z,25.38
2022-08-10T21:39:42.817Z,25.33
2022-08-10T21:42:55.824Z,25.31
2022-08-10T21:46:08.989Z,25.24
2022-08-10T21:49:14.506Z,25.15
2022-08-10T21:52:12.728Z,25.07
2022-08-10T21:55:18.988Z,25.02
2022-08-10T21:58:12.492Z,24.96
2022-08-10T22:01:38.979Z,24.94
2022-08-10T22:04:25.300Z,24.92
2022-08-10T22:07:11.160Z,24.85
2022-08-10T22:10:07.486Z,24.83
2022-08-10T22:13:00.763Z,24.81
2022-08-10T22:16:05.516Z,24.72
2022-08-10T22:19:01.806Z,24.67
2022-08-10T22:22:19.830Z,24.62
2022-08-10T22:25:43.535Z,24.57
2022-08-10T22:28:33.895Z,24.53
2022-08-10T22:31:43.789Z,24.47
2022-08-10T22:34:58.907Z,24.36
2022-08-10T22:37:53.915Z,24.31
2022-08-10T22:40:42.056Z,24.26
2022-08-10T22:43:37.841Z,24.24
2022-08-10T22:46:29.862Z,24.18
2022-08-10T22:49:02.142Z,24.11
2022-08-10T22:51:36.780Z,24.11
2022-08-10T22:54:49.989Z,24.00
2022-08-10T22:57:36.330Z,23.96
2022-08-10T23:00:17.667Z,23.88
2022-08-10T23:02:55.126Z,23.83
2022-08-10T23:05:32.163Z,23.83
2022-08-10T23:08:08.658Z,23.81
2022-08-10T23:10:40.538Z,23.80
2022-08-10T23:13:13.927Z,23.74
2022-08-10T23:16:23.430Z,23.69
2022-08-10T23:19:10.693Z,23.61
2022-08-10T23:22:04.367Z,23.58
2022-08-10T23:25:01.021Z,23.53
2022-08-10T23:27:38.705Z,23.51
2022-08-10T23:30:17.529Z,23.47
2022-08-10T23:32:51.355Z,23.39
2022-08-10T23:36:29.928Z,23.32
2022-08-10T23:38:10.587Z,23.30
2022-08-10T23:40:38.191Z,23.23
2022-08-10T23:43:05.426Z,23.17
2022-08-10T23:45:53.579Z,23.18
2022-08-10T23:48:23.103Z,23.10
2022-08-10T23:50:58.095Z,23.05
2022-08-10T23:53:36.959Z,23.03
2022-08-10T23:56:07.919Z,23.03
2022-08-10T23:58:39.268Z,22.96
